Terminal Aerodrome Forecast
Issued by NWS

Home | Current Version | Previous Version | Text Only | Print | Product List | Glossary On
Versions: 1 2 3 4 5 6 7 8 9 10 11 12 13 14 15 16 17 18 19 20
972
FTUS46 KLOX 011403 AAA
TAFOXR
TAF AMD
KOXR 011403Z 0114/0212 00000KT P6SM SKC
     FM011700 26006KT P6SM SCT015
     FM012100 26012KT P6SM SCT250
     FM020300 VRB03KT P6SM SCT015
     FM020700 VRB03KT P6SM OVC015=

USA.gov is the U.S. government's official web portal to all federal, state and local government web resources and services.